CDT,Max TemperatureF,Mean TemperatureF,Min TemperatureF,Max Dew PointF,MeanDew PointF,Min DewpointF,Max Humidity, Mean Humidity, Min Humidity, Max Sea Level PressureIn, Mean Sea Level PressureIn, Min Sea Level PressureIn, Max VisibilityMiles, Mean VisibilityMiles, Min VisibilityMiles, Max Wind SpeedMPH, Mean Wind SpeedMPH, Max Gust SpeedMPH,PrecipitationIn, CloudCover, Events, WindDirDegrees
2011-10-1,66,53,39,43,39,36,92,63,34,30.28,30.22,30.10,10,10,10,16,6,22,0.00,0,,356
2011-10-2,70,53,35,43,38,33,93,61,28,30.30,30.24,30.19,10,10,9,13,3,20,0.00,0,,350
2011-10-3,77,57,37,48,40,35,100,62,24,30.28,30.23,30.18,10,8,0,9,1,13,0.00,0,Fog,275
2011-10-4,79,60,41,52,44,39,100,64,27,30.31,30.25,30.21,10,6,0,9,1,18,0.00,0,Fog,102
2011-10-5,81,62,42,55,47,42,100,65,30,30.28,30.22,30.15,10,6,0,10,2,13,0.00,1,Fog,101
2011-10-6,84,66,47,57,50,46,100,66,31,30.24,30.19,30.16,10,4,0,14,4,18,0.00,0,Fog,144
2011-10-7,83,68,52,58,54,49,93,62,31,30.32,30.25,30.20,10,10,6,16,6,21,0.00,0,,138
2011-10-8,82,68,54,57,55,52,87,63,39,30.34,30.27,30.22,10,10,10,16,8,20,0.00,0,,145
2011-10-9,80,66,51,55,50,44,93,62,30,30.31,30.23,30.15,10,10,9,14,5,28,0.00,0,,101
2011-10-10,80,64,48,59,54,46,93,69,45,30.17,30.10,30.01,10,9,2,14,3,17,0.00,2,,120
2011-10-11,81,69,57,64,58,55,93,68,42,30.01,29.94,29.86,10,10,7,9,2,12,0.01,4,Rain,78
2011-10-12,75,68,60,64,60,56,93,79,64,29.87,29.79,29.68,10,9,1,16,6,20,0.40,5,Rain,220
2011-10-13,75,62,49,59,54,44,97,68,38,29.76,29.67,29.61,10,9,6,22,9,29,0.06,5,Rain,265
2011-10-14,76,60,44,45,38,33,89,56,23,29.99,29.86,29.77,10,10,10,21,9,28,0.00,1,,278
2011-10-15,74,58,42,41,36,32,71,47,22,30.12,30.05,30.00,10,10,10,17,7,22,0.00,0,,259
2011-10-16,87,68,49,51,45,36,66,47,27,30.02,29.94,29.82,10,10,10,21,9,30,0.00,0,,233
2011-10-17,72,61,49,46,40,37,83,56,29,29.99,29.92,29.83,10,10,10,16,7,21,0.00,2,,40
2011-10-18,54,50,46,46,43,34,93,70,46,29.85,29.82,29.78,10,8,4,20,10,25,0.63,8,Rain-Thunderstorm,357
2011-10-19,51,48,44,41,39,36,83,75,66,29.81,29.75,29.72,10,10,8,25,14,32,0.07,8,Rain,317
2011-10-20,59,47,34,36,34,31,82,59,36,30.07,29.91,29.79,10,9,7,22,9,28,0.00,2,,282
2011-10-21,64,48,31,38,32,27,92,59,25,30.20,30.15,30.08,10,10,10,13,3,17,0.00,0,,283
2011-10-22,71,53,34,45,40,32,100,69,37,30.18,30.11,30.04,10,10,10,10,2,14,0.00,0,,192
2011-10-23,70,58,45,49,46,42,93,69,44,30.08,30.04,30.00,10,10,10,13,4,25,0.00,0,,186
2011-10-24,77,62,47,53,45,37,93,59,25,30.19,30.14,30.07,10,10,6,14,5,17,0.00,0,,240
2011-10-25,80,64,47,54,47,39,100,63,25,30.17,30.08,29.92,10,7,2,28,10,35,0.00,0,,182
2011-10-26,71,61,51,61,54,48,93,75,56,29.94,29.89,29.82,10,6,1,15,7,20,0.95,7,Rain-Thunderstorm,329
2011-10-27,54,52,49,48,44,39,93,76,59,30.15,30.00,29.91,10,9,2,17,9,25,0.01,7,Rain-Thunderstorm,358
2011-10-28,58,47,36,40,37,34,92,68,43,30.20,30.15,30.12,10,10,10,16,5,26,0.00,4,,23
2011-10-29,62,47,31,37,31,22,96,59,22,30.22,30.16,30.13,10,9,4,13,3,18,0.00,0,,288
2011-10-30,62,49,35,37,34,30,82,58,34,30.23,30.14,30.07,10,10,10,23,9,28,0.00,1,,182
2011-10-31,67,50,32,38,33,28,89,57,24,30.17,30.13,30.10,10,10,10,16,4,22,0.00,0,,260